Time;durP1;ratioP1;P1;durP2;ratioP2;P2;SDS_P1;SDS_P2;PMS_P1;PMS_P2;Temp;Humidity;BMP_temperature;BMP_pressure;BME280_temperature;BME280_humidity;BME280_pressure;Samples;Min_cycle;Max_cycle;Signal;HPM_P1;HPM_P2
2022/11/21 00:01:19;;;;;;;19.20;14.27;;;;;;;;;;4996769;28;20363;-51
2022/11/21 00:03:45;;;;;;;18.07;14.07;;;;;;;;;;4996816;28;20174;-51
2022/11/21 00:06:11;;;;;;;20.00;14.53;;;;;;;;;;4994853;28;20201;-51
2022/11/21 00:08:37;;;;;;;20.03;14.63;;;;;;;;;;4969175;28;20574;-51
2022/11/21 00:11:03;;;;;;;21.83;15.53;;;;;;;;;;4988110;28;20208;-52
2022/11/21 00:13:29;;;;;;;20.53;15.53;;;;;;;;;;5002650;28;20286;-51
2022/11/21 00:15:55;;;;;;;20.13;14.83;;;;;;;;;;4984398;28;20180;-51
2022/11/21 00:18:21;;;;;;;21.97;15.63;;;;;;;;;;4988877;28;20559;-50
2022/11/21 00:20:47;;;;;;;21.57;15.20;;;;;;;;;;5001453;28;20581;-51
2022/11/21 00:23:13;;;;;;;23.47;15.50;;;;;;;;;;5006042;28;20206;-51
2022/11/21 00:25:39;;;;;;;19.37;14.70;;;;;;;;;;4977729;28;20561;-51
2022/11/21 00:28:05;;;;;;;25.83;17.13;;;;;;;;;;5006773;28;20202;-51
2022/11/21 00:30:31;;;;;;;26.53;16.00;;;;;;;;;;4976911;28;20277;-51
2022/11/21 00:32:58;;;;;;;21.13;14.73;;;;;;;;;;5005618;28;20265;-51
2022/11/21 00:35:24;;;;;;;26.30;17.37;;;;;;;;;;4986813;28;20206;-51
2022/11/21 00:37:50;;;;;;;25.27;16.30;;;;;;;;;;5005420;28;20609;-51
2022/11/21 00:40:17;;;;;;;25.33;17.77;;;;;;;;;;4984784;28;20735;-51
2022/11/21 00:42:43;;;;;;;26.57;17.13;;;;;;;;;;4996243;28;20660;-51
2022/11/21 00:45:09;;;;;;;24.97;16.53;;;;;;;;;;5003210;28;20297;-52
2022/11/21 00:47:35;;;;;;;28.63;17.23;;;;;;;;;;5006012;28;20195;-52
2022/11/21 00:50:01;;;;;;;28.73;18.43;;;;;;;;;;5006564;28;20170;-51
2022/11/21 00:52:27;;;;;;;27.07;18.80;;;;;;;;;;4993863;28;20270;-52
2022/11/21 00:54:53;;;;;;;28.93;19.27;;;;;;;;;;4985914;28;20598;-51
2022/11/21 00:57:19;;;;;;;27.97;17.87;;;;;;;;;;4987107;28;20540;-51
2022/11/21 00:59:45;;;;;;;28.30;18.23;;;;;;;;;;4988116;28;20646;-51
2022/11/21 01:02:12;;;;;;;26.47;19.33;;;;;;;;;;4985902;28;20497;-51
2022/11/21 01:04:39;;;;;;;27.03;19.73;;;;;;;;;;4985820;28;20719;-51
2022/11/21 01:07:05;;;;;;;22.40;17.57;;;;;;;;;;4992867;28;20495;-52
2022/11/21 01:09:31;;;;;;;26.87;18.97;;;;;;;;;;5005304;28;20214;-52
2022/11/21 01:11:57;;;;;;;26.30;17.83;;;;;;;;;;4994821;28;20514;-51
2022/11/21 01:14:23;;;;;;;24.77;17.87;;;;;;;;;;4996880;28;20548;-51
2022/11/21 01:16:49;;;;;;;26.40;17.73;;;;;;;;;;4985408;28;20183;-51
2022/11/21 01:19:15;;;;;;;25.40;18.27;;;;;;;;;;4990777;28;20183;-51
2022/11/21 01:21:48;;;;;;;24.90;17.37;;;;;;;;;;5003135;28;20182;-52
2022/11/21 01:24:14;;;;;;;27.10;18.00;;;;;;;;;;4987355;28;20266;-52
2022/11/21 01:26:40;;;;;;;25.80;17.30;;;;;;;;;;5005105;28;20190;-51
2022/11/21 01:29:07;;;;;;;24.37;17.67;;;;;;;;;;4999803;28;20676;-51
2022/11/21 01:31:34;;;;;;;25.23;18.10;;;;;;;;;;4988927;28;20226;-52
2022/11/21 01:34:00;;;;;;;26.93;19.07;;;;;;;;;;4986835;28;20932;-52
2022/11/21 01:36:28;;;;;;;22.30;16.70;;;;;;;;;;5003750;28;20265;-51
2022/11/21 01:38:55;;;;;;;23.63;17.30;;;;;;;;;;5003856;28;20178;-51
2022/11/21 01:41:23;;;;;;;23.87;17.83;;;;;;;;;;4997106;28;20274;-52
2022/11/21 01:43:50;;;;;;;25.27;17.60;;;;;;;;;;4986853;28;20481;-51
2022/11/21 01:46:17;;;;;;;27.20;18.23;;;;;;;;;;4967960;28;20207;-52
2022/11/21 01:49:02;;;;;;;25.40;17.30;;;;;;;;;;4993527;28;20217;-52
2022/11/21 01:51:28;;;;;;;23.40;18.17;;;;;;;;;;4995459;28;20340;-52
2022/11/21 01:53:57;;;;;;;22.17;17.27;;;;;;;;;;4991137;28;20179;-52
2022/11/21 01:56:24;;;;;;;21.00;16.03;;;;;;;;;;4994985;28;20207;-51
2022/11/21 01:58:50;;;;;;;22.70;16.97;;;;;;;;;;4984553;28;20270;-52
2022/11/21 02:01:17;;;;;;;24.83;17.53;;;;;;;;;;4996081;28;20189;-51
2022/11/21 02:03:44;;;;;;;22.30;17.13;;;;;;;;;;4986839;28;20193;-52
2022/11/21 02:06:18;;;;;;;22.50;16.87;;;;;;;;;;4992774;28;20174;-52
2022/11/21 02:08:44;;;;;;;21.93;15.57;;;;;;;;;;4996402;28;20194;-51
2022/11/21 02:11:30;;;;;;;21.67;17.03;;;;;;;;;;4987759;28;20175;-52
2022/11/21 02:13:57;;;;;;;24.80;18.03;;;;;;;;;;4974131;28;20666;-51
2022/11/21 02:16:23;;;;;;;22.53;16.37;;;;;;;;;;4985104;28;20569;-51
2022/11/21 02:18:49;;;;;;;21.67;16.67;;;;;;;;;;4984759;28;20191;-52
2022/11/21 02:21:18;;;;;;;21.73;17.17;;;;;;;;;;4994379;28;20179;-52
2022/11/21 02:23:57;;;;;;;25.00;17.13;;;;;;;;;;4992585;28;20178;-51
2022/11/21 02:26:23;;;;;;;20.70;16.73;;;;;;;;;;4984347;28;20182;-51
2022/11/21 02:28:49;;;;;;;22.40;17.40;;;;;;;;;;4984627;28;20230;-52
2022/11/21 02:31:15;;;;;;;24.27;17.27;;;;;;;;;;4983724;28;20251;-52
2022/11/21 02:33:41;;;;;;;24.07;17.23;;;;;;;;;;4986669;28;20817;-52
2022/11/21 02:36:26;;;;;;;25.00;17.27;;;;;;;;;;4995094;28;20249;-52
2022/11/21 02:38:52;;;;;;;20.67;16.37;;;;;;;;;;4989801;28;20178;-52
2022/11/21 02:41:27;;;;;;;23.87;17.23;;;;;;;;;;4984365;28;20196;-52
2022/11/21 02:44:05;;;;;;;25.27;19.00;;;;;;;;;;4990985;28;20812;-52
2022/11/21 02:46:33;;;;;;;23.33;17.03;;;;;;;;;;4985485;28;20728;-52
2022/11/21 02:48:59;;;;;;;23.30;16.90;;;;;;;;;;4984839;28;20207;-52
2022/11/21 02:51:25;;;;;;;22.83;17.63;;;;;;;;;;4983373;28;20175;-52
2022/11/21 02:53:51;;;;;;;25.50;18.13;;;;;;;;;;4987844;28;20593;-52
2022/11/21 02:56:17;;;;;;;24.10;16.77;;;;;;;;;;4983664;28;20666;-52
2022/11/21 02:58:43;;;;;;;20.97;16.73;;;;;;;;;;4985887;28;20704;-52
2022/11/21 03:01:09;;;;;;;21.70;16.87;;;;;;;;;;4988420;28;20175;-59
2022/11/21 03:03:35;;;;;;;22.97;17.30;;;;;;;;;;4999658;28;20229;-52
2022/11/21 03:06:01;;;;;;;22.90;17.07;;;;;;;;;;4991573;28;20195;-52
2022/11/21 03:08:27;;;;;;;24.33;17.13;;;;;;;;;;4995573;28;20202;-52
2022/11/21 03:10:53;;;;;;;23.13;17.80;;;;;;;;;;5003841;28;20174;-52
2022/11/21 03:13:19;;;;;;;23.07;17.67;;;;;;;;;;4995376;28;20275;-52
2022/11/21 03:15:45;;;;;;;23.97;17.27;;;;;;;;;;4987490;28;20602;-52
2022/11/21 03:18:11;;;;;;;23.63;17.17;;;;;;;;;;4988875;28;20190;-53
2022/11/21 03:20:37;;;;;;;24.23;17.47;;;;;;;;;;4983625;28;20278;-53
2022/11/21 03:23:03;;;;;;;22.43;16.77;;;;;;;;;;4972014;28;20206;-52
2022/11/21 03:25:30;;;;;;;22.63;16.30;;;;;;;;;;5002491;28;20668;-53
2022/11/21 03:27:56;;;;;;;21.93;16.60;;;;;;;;;;4994290;28;20199;-53
2022/11/21 03:30:23;;;;;;;21.70;17.63;;;;;;;;;;4993488;28;20588;-52
2022/11/21 03:32:49;;;;;;;25.13;17.03;;;;;;;;;;4990699;28;20293;-53
2022/11/21 03:35:15;;;;;;;24.83;17.37;;;;;;;;;;4994328;28;20190;-53
2022/11/21 03:37:41;;;;;;;23.17;17.43;;;;;;;;;;4988285;28;20175;-52
2022/11/21 03:40:08;;;;;;;24.97;18.57;;;;;;;;;;4987015;28;20183;-52
2022/11/21 03:42:34;;;;;;;22.80;17.23;;;;;;;;;;4985200;28;20274;-52
2022/11/21 03:45:00;;;;;;;22.30;16.77;;;;;;;;;;4988536;28;20717;-52
2022/11/21 03:47:26;;;;;;;22.57;16.83;;;;;;;;;;4997885;28;20289;-52
2022/11/21 03:49:52;;;;;;;21.77;16.40;;;;;;;;;;5002069;28;20352;-53
2022/11/21 03:52:18;;;;;;;26.07;18.57;;;;;;;;;;4990992;28;20238;-52
2022/11/21 03:54:44;;;;;;;26.70;17.47;;;;;;;;;;4988385;28;20187;-53
2022/11/21 03:57:10;;;;;;;25.57;18.03;;;;;;;;;;4970662;28;20209;-53
2022/11/21 03:59:36;;;;;;;23.23;17.00;;;;;;;;;;4995582;28;20185;-52
2022/11/21 04:02:02;;;;;;;24.03;16.83;;;;;;;;;;4990153;28;20274;-53
2022/11/21 04:04:28;;;;;;;25.40;18.30;;;;;;;;;;5001620;28;20262;-52
2022/11/21 04:06:54;;;;;;;25.43;18.57;;;;;;;;;;4999298;28;20302;-52
2022/11/21 04:09:20;;;;;;;24.83;17.93;;;;;;;;;;4999021;28;20680;-52
2022/11/21 04:11:46;;;;;;;26.27;17.90;;;;;;;;;;5003036;28;20196;-52
2022/11/21 04:14:13;;;;;;;23.97;17.40;;;;;;;;;;4988418;28;20216;-52
2022/11/21 04:16:39;;;;;;;31.67;22.97;;;;;;;;;;4991910;28;20705;-52
2022/11/21 04:19:05;;;;;;;26.47;16.60;;;;;;;;;;5006363;28;20212;-52
2022/11/21 04:21:31;;;;;;;23.13;16.83;;;;;;;;;;4997918;28;20218;-52
2022/11/21 04:23:57;;;;;;;27.33;16.67;;;;;;;;;;4994141;28;20709;-52
2022/11/21 04:26:23;;;;;;;25.73;17.20;;;;;;;;;;4969756;28;20183;-52
2022/11/21 04:28:49;;;;;;;26.03;17.10;;;;;;;;;;4987567;28;20277;-52
2022/11/21 04:31:15;;;;;;;26.13;16.93;;;;;;;;;;4970872;28;20844;-52
2022/11/21 04:33:41;;;;;;;25.03;16.87;;;;;;;;;;4989411;28;20811;-52
2022/11/21 04:36:07;;;;;;;26.67;17.13;;;;;;;;;;4994893;28;20171;-52
2022/11/21 04:38:34;;;;;;;23.73;16.00;;;;;;;;;;4986252;28;20210;-53
2022/11/21 04:41:00;;;;;;;25.10;16.30;;;;;;;;;;4993103;28;20182;-52
2022/11/21 04:43:26;;;;;;;23.30;16.70;;;;;;;;;;4990628;28;20585;-52
2022/11/21 04:45:52;;;;;;;24.23;16.17;;;;;;;;;;4985030;28;20649;-52
2022/11/21 04:48:18;;;;;;;21.37;15.80;;;;;;;;;;4992481;28;20508;-52
2022/11/21 04:50:45;;;;;;;21.63;14.83;;;;;;;;;;4993684;28;20537;-52
2022/11/21 04:53:11;;;;;;;27.13;17.03;;;;;;;;;;4986447;28;20514;-52
2022/11/21 04:55:37;;;;;;;23.53;15.80;;;;;;;;;;4996545;28;20539;-52
2022/11/21 04:58:03;;;;;;;25.47;16.60;;;;;;;;;;4987661;28;20273;-52
2022/11/21 05:00:29;;;;;;;23.57;16.80;;;;;;;;;;4990887;28;20193;-52
2022/11/21 05:03:01;;;;;;;21.43;15.40;;;;;;;;;;4973055;28;20466;-52
2022/11/21 05:05:27;;;;;;;28.33;16.23;;;;;;;;;;4993891;28;20187;-52
2022/11/21 05:07:53;;;;;;;26.63;16.13;;;;;;;;;;4985946;28;20274;-52
2022/11/21 05:10:19;;;;;;;23.63;16.37;;;;;;;;;;4989851;28;20849;-52
2022/11/21 05:15:30;;;;;;;22.37;15.33;;;;;;;;;;4984250;28;20194;-52
2022/11/21 05:17:58;;;;;;;24.47;16.03;;;;;;;;;;4985660;28;20654;-53
2022/11/21 05:20:24;;;;;;;22.00;15.27;;;;;;;;;;4987168;28;20533;-53
2022/11/21 05:22:51;;;;;;;24.87;15.87;;;;;;;;;;4985809;28;20894;-52
2022/11/21 05:25:17;;;;;;;26.10;15.73;;;;;;;;;;4984624;28;20191;-52
2022/11/21 05:27:43;;;;;;;22.03;14.97;;;;;;;;;;4988801;28;20179;-53
2022/11/21 05:30:10;;;;;;;20.83;14.70;;;;;;;;;;4985644;28;20461;-53
2022/11/21 05:32:36;;;;;;;25.37;15.57;;;;;;;;;;4979009;28;20969;-52
2022/11/21 05:35:02;;;;;;;21.33;14.00;;;;;;;;;;4970371;28;20230;-52
2022/11/21 05:37:28;;;;;;;21.90;14.83;;;;;;;;;;4971349;28;20187;-53
2022/11/21 05:39:54;;;;;;;21.60;14.40;;;;;;;;;;4953888;28;20175;-53
2022/11/21 05:43:44;;;;;;;24.20;14.37;;;;;;;;;;4973399;28;20207;-53
2022/11/21 05:45:07;;;;;;;20.90;14.93;;;;;;;;;;4968214;28;20236;-53
2022/11/21 05:47:33;;;;;;;20.90;13.97;;;;;;;;;;4970571;28;20717;-53
2022/11/21 05:49:59;;;;;;;22.03;14.07;;;;;;;;;;4957762;28;20580;-53
2022/11/21 05:52:25;;;;;;;20.70;14.33;;;;;;;;;;4973659;28;20176;-53
2022/11/21 05:54:51;;;;;;;22.70;15.30;;;;;;;;;;4972393;28;20187;-53
2022/11/21 05:57:17;;;;;;;20.83;14.23;;;;;;;;;;4968057;28;20183;-53
2022/11/21 05:59:43;;;;;;;24.80;15.90;;;;;;;;;;4982552;28;20183;-53
2022/11/21 06:04:53;;;;;;;22.93;15.20;;;;;;;;;;4976509;28;20644;-53
2022/11/21 06:07:19;;;;;;;22.00;14.53;;;;;;;;;;4969631;28;20275;-53
2022/11/21 06:09:45;;;;;;;24.00;15.37;;;;;;;;;;4974140;28;20234;-53
2022/11/21 06:12:11;;;;;;;22.57;14.13;;;;;;;;;;4967926;28;20214;-53
2022/11/21 06:14:37;;;;;;;21.47;14.80;;;;;;;;;;4981855;28;20534;-53
2022/11/21 06:17:03;;;;;;;21.93;13.93;;;;;;;;;;4980648;28;20495;-53
2022/11/21 06:19:29;;;;;;;20.80;14.00;;;;;;;;;;4983610;28;20586;-53
2022/11/21 06:21:55;;;;;;;22.53;15.20;;;;;;;;;;4972780;28;20183;-53
2022/11/21 06:24:21;;;;;;;22.67;14.63;;;;;;;;;;4968917;28;20243;-53
2022/11/21 06:26:47;;;;;;;24.80;15.87;;;;;;;;;;4976753;28;20179;-53
2022/11/21 06:29:13;;;;;;;23.70;16.23;;;;;;;;;;4975639;28;20263;-53
2022/11/21 06:31:39;;;;;;;27.27;15.87;;;;;;;;;;4965286;28;20195;-53
2022/11/21 06:34:06;;;;;;;23.63;15.27;;;;;;;;;;4985670;28;20321;-52
2022/11/21 06:36:32;;;;;;;26.70;16.40;;;;;;;;;;4990132;28;20401;-52
2022/11/21 06:38:58;;;;;;;24.93;15.47;;;;;;;;;;5004838;28;20187;-52
2022/11/21 06:41:31;;;;;;;27.57;15.83;;;;;;;;;;4999058;28;20184;-52
2022/11/21 06:44:00;;;;;;;26.03;16.87;;;;;;;;;;4998702;28;20242;-53
2022/11/21 06:46:26;;;;;;;26.67;16.43;;;;;;;;;;4987105;28;20206;-53
2022/11/21 06:48:53;;;;;;;24.20;16.03;;;;;;;;;;4996960;28;20702;-53
2022/11/21 06:51:23;;;;;;;24.57;14.77;;;;;;;;;;4989901;28;20182;-53
2022/11/21 06:53:56;;;;;;;25.30;16.00;;;;;;;;;;4996204;28;20179;-53
2022/11/21 06:56:24;;;;;;;25.00;15.50;;;;;;;;;;5002866;28;20206;-53
2022/11/21 06:58:50;;;;;;;26.50;16.30;;;;;;;;;;5004392;28;20166;-53
2022/11/21 07:01:16;;;;;;;23.80;15.07;;;;;;;;;;4993837;28;20211;-53
2022/11/21 07:03:42;;;;;;;26.43;15.53;;;;;;;;;;4992379;28;20230;-53
2022/11/21 07:06:08;;;;;;;30.70;17.83;;;;;;;;;;4992262;28;20186;-53
2022/11/21 07:08:35;;;;;;;27.30;17.20;;;;;;;;;;4993524;28;20759;-53
2022/11/21 07:11:06;;;;;;;24.40;16.53;;;;;;;;;;4993625;28;20187;-53
2022/11/21 07:13:32;;;;;;;28.80;17.20;;;;;;;;;;4967435;28;20175;-53
2022/11/21 07:16:02;;;;;;;24.37;16.33;;;;;;;;;;4984411;28;20233;-53
2022/11/21 07:18:29;;;;;;;24.53;16.67;;;;;;;;;;4990060;28;20513;-53
2022/11/21 07:20:58;;;;;;;31.07;16.90;;;;;;;;;;4997121;28;20209;-53
2022/11/21 07:23:24;;;;;;;25.93;15.83;;;;;;;;;;5006851;28;20186;-53
2022/11/21 07:25:51;;;;;;;25.07;16.43;;;;;;;;;;5006723;28;20179;-52
2022/11/21 07:28:17;;;;;;;27.27;16.20;;;;;;;;;;5007957;28;20229;-53
2022/11/21 07:30:43;;;;;;;27.03;16.13;;;;;;;;;;4989379;28;20179;-53
2022/11/21 07:33:09;;;;;;;28.30;15.67;;;;;;;;;;4989344;28;20419;-53
2022/11/21 07:35:35;;;;;;;29.20;16.20;;;;;;;;;;5006121;28;20178;-53
2022/11/21 07:38:02;;;;;;;28.43;16.43;;;;;;;;;;4996640;28;20183;-53
2022/11/21 07:40:28;;;;;;;30.23;16.53;;;;;;;;;;4979436;28;20190;-53
2022/11/21 07:42:59;;;;;;;25.63;16.47;;;;;;;;;;4989090;28;20637;-53
2022/11/21 07:45:25;;;;;;;27.93;16.23;;;;;;;;;;5000219;28;20571;-53
2022/11/21 07:47:58;;;;;;;27.57;16.30;;;;;;;;;;5001588;28;20249;-53
2022/11/21 07:50:24;;;;;;;29.00;16.53;;;;;;;;;;4994877;28;20227;-53
2022/11/21 07:52:51;;;;;;;27.23;16.90;;;;;;;;;;4992595;28;20934;-53
2022/11/21 07:55:17;;;;;;;31.03;15.93;;;;;;;;;;4974230;28;20656;-53
2022/11/21 07:57:43;;;;;;;32.47;19.47;;;;;;;;;;4998044;28;20183;-53
2022/11/21 08:00:09;;;;;;;29.73;16.57;;;;;;;;;;4998440;28;20190;-53
2022/11/21 08:02:35;;;;;;;26.70;16.20;;;;;;;;;;4989406;28;20190;-53
2022/11/21 08:05:01;;;;;;;28.23;16.90;;;;;;;;;;4996572;28;20681;-53
2022/11/21 08:07:34;;;;;;;27.60;16.47;;;;;;;;;;5000433;28;20174;-53
2022/11/21 08:10:00;;;;;;;30.77;18.10;;;;;;;;;;5004877;28;20827;-53
2022/11/21 08:12:26;;;;;;;27.33;16.77;;;;;;;;;;5006797;28;20699;-53
2022/11/21 08:14:52;;;;;;;30.37;17.53;;;;;;;;;;4997041;28;20266;-53
2022/11/21 08:17:18;;;;;;;35.80;17.83;;;;;;;;;;5007082;28;20290;-54
2022/11/21 08:19:44;;;;;;;28.03;17.13;;;;;;;;;;4999806;28;20522;-53
2022/11/21 08:22:10;;;;;;;31.13;16.33;;;;;;;;;;5006175;28;20163;-53
2022/11/21 08:24:36;;;;;;;28.50;17.13;;;;;;;;;;4996354;28;20229;-53
2022/11/21 08:27:02;;;;;;;33.30;17.57;;;;;;;;;;5006794;28;20166;-53
2022/11/21 08:29:28;;;;;;;26.43;16.67;;;;;;;;;;5003399;28;20190;-53
2022/11/21 08:31:54;;;;;;;26.23;16.00;;;;;;;;;;5003388;28;20174;-53
2022/11/21 08:34:20;;;;;;;27.37;15.70;;;;;;;;;;5002736;28;20688;-53
2022/11/21 08:36:46;;;;;;;30.17;17.10;;;;;;;;;;5005423;28;20158;-53
2022/11/21 08:39:12;;;;;;;30.10;17.57;;;;;;;;;;4995524;28;20179;-53
2022/11/21 08:44:23;;;;;;;35.67;18.20;;;;;;;;;;4989756;28;20281;-53
2022/11/21 08:46:49;;;;;;;38.00;20.17;;;;;;;;;;4987968;28;20899;-53
2022/11/21 08:49:15;;;;;;;32.13;18.77;;;;;;;;;;4997953;28;20747;-53
2022/11/21 08:51:41;;;;;;;38.87;19.67;;;;;;;;;;5005613;28;20602;-53
2022/11/21 08:54:08;;;;;;;30.10;17.67;;;;;;;;;;4988837;28;20233;-53
2022/11/21 08:56:34;;;;;;;33.30;18.37;;;;;;;;;;5006045;28;20274;-53
2022/11/21 08:59:00;;;;;;;31.47;17.03;;;;;;;;;;5006660;28;20189;-53
2022/11/21 09:01:26;;;;;;;34.03;18.20;;;;;;;;;;5006138;28;20537;-53
2022/11/21 09:03:52;;;;;;;33.47;18.80;;;;;;;;;;5006486;28;20189;-53
2022/11/21 09:06:18;;;;;;;36.33;18.53;;;;;;;;;;5005192;28;20190;-53
2022/11/21 09:08:44;;;;;;;33.83;17.97;;;;;;;;;;5006850;28;20273;-53
2022/11/21 09:11:10;;;;;;;30.93;18.37;;;;;;;;;;5006136;28;20178;-53
2022/11/21 09:13:36;;;;;;;29.90;17.80;;;;;;;;;;5006328;28;20193;-53
2022/11/21 09:18:48;;;;;;;31.23;18.33;;;;;;;;;;5006518;28;20178;-53
2022/11/21 09:21:17;;;;;;;34.23;16.70;;;;;;;;;;5004591;28;20583;-53
2022/11/21 09:23:43;;;;;;;25.17;15.77;;;;;;;;;;5006000;28;20189;-53
2022/11/21 09:26:10;;;;;;;29.20;16.67;;;;;;;;;;5005791;28;20163;-53
2022/11/21 09:28:36;;;;;;;27.07;16.23;;;;;;;;;;5005943;28;20182;-53
2022/11/21 09:31:02;;;;;;;31.50;17.03;;;;;;;;;;5005586;28;20170;-53
2022/11/21 09:33:29;;;;;;;30.47;17.40;;;;;;;;;;5007706;28;20233;-52
2022/11/21 09:35:57;;;;;;;31.63;17.37;;;;;;;;;;5004793;28;20653;-52
2022/11/21 09:38:25;;;;;;;25.43;16.00;;;;;;;;;;5005866;28;20178;-52
2022/11/21 09:40:51;;;;;;;26.70;16.83;;;;;;;;;;5004681;28;20234;-52
2022/11/21 09:43:43;;;;;;;28.60;17.07;;;;;;;;;;5005749;28;20395;-52
2022/11/21 09:46:14;;;;;;;27.13;17.60;;;;;;;;;;5001800;28;20297;-52
2022/11/21 09:48:49;;;;;;;22.27;15.87;;;;;;;;;;5005795;28;20190;-52
2022/11/21 09:51:17;;;;;;;24.60;16.30;;;;;;;;;;5004586;28;20174;-52
2022/11/21 09:53:51;;;;;;;27.53;17.17;;;;;;;;;;5005896;28;20622;-52
2022/11/21 09:56:22;;;;;;;28.97;17.47;;;;;;;;;;5005340;28;20170;-53
2022/11/21 09:58:50;;;;;;;23.17;15.00;;;;;;;;;;5005500;28;20570;-52
2022/11/21 10:01:17;;;;;;;29.57;16.77;;;;;;;;;;5004782;28;20631;-52
2022/11/21 10:03:45;;;;;;;25.57;15.30;;;;;;;;;;5005536;28;20242;-53
2022/11/21 10:06:14;;;;;;;24.93;14.77;;;;;;;;;;4996938;28;20179;-53
2022/11/21 10:08:42;;;;;;;23.17;14.47;;;;;;;;;;4985791;28;20192;-52
2022/11/21 10:11:14;;;;;;;22.03;13.90;;;;;;;;;;4985735;28;20186;-52
2022/11/21 10:13:43;;;;;;;18.33;12.20;;;;;;;;;;4985732;28;20671;-52
2022/11/21 10:16:15;;;;;;;26.47;14.43;;;;;;;;;;4985466;28;20151;-53
2022/11/21 10:18:44;;;;;;;19.77;13.53;;;;;;;;;;4985588;28;20583;-53
2022/11/21 10:21:24;;;;;;;17.73;14.13;;;;;;;;;;4984862;28;20611;-52
2022/11/21 10:23:51;;;;;;;18.60;13.13;;;;;;;;;;4985732;28;20160;-53
2022/11/21 10:26:17;;;;;;;19.43;12.63;;;;;;;;;;4985457;28;20238;-53
2022/11/21 10:28:47;;;;;;;18.30;12.80;;;;;;;;;;4985397;28;20595;-53
2022/11/21 10:31:14;;;;;;;20.10;12.93;;;;;;;;;;4985509;28;20155;-53
2022/11/21 10:33:41;;;;;;;20.63;12.47;;;;;;;;;;4987310;28;20732;-53
2022/11/21 10:36:26;;;;;;;19.70;11.83;;;;;;;;;;4984206;28;20261;-53
2022/11/21 10:38:54;;;;;;;12.63;10.37;;;;;;;;;;4985307;28;20238;-54
2022/11/21 10:41:24;;;;;;;16.10;12.33;;;;;;;;;;4984995;28;20191;-52
2022/11/21 10:46:53;;;;;;;16.77;12.43;;;;;;;;;;4996945;28;20254;-53
2022/11/21 10:49:19;;;;;;;14.50;10.93;;;;;;;;;;5004834;28;20190;-53
2022/11/21 10:51:50;;;;;;;17.13;12.03;;;;;;;;;;5005004;28;20165;-53
2022/11/21 10:54:32;;;;;;;15.70;11.63;;;;;;;;;;5008740;28;20159;-53
2022/11/21 10:57:06;;;;;;;12.37;10.87;;;;;;;;;;4989137;28;20283;-53
2022/11/21 10:59:32;;;;;;;13.60;11.07;;;;;;;;;;4989342;28;20179;-53
2022/11/21 11:01:59;;;;;;;13.20;9.97;;;;;;;;;;4971072;28;20664;-53
2022/11/21 11:04:26;;;;;;;12.37;9.60;;;;;;;;;;4989068;28;20170;-53
2022/11/21 11:06:52;;;;;;;16.53;10.90;;;;;;;;;;4987870;28;20172;-53
2022/11/21 11:09:27;;;;;;;15.10;10.30;;;;;;;;;;4988987;28;20195;-52
2022/11/21 11:11:53;;;;;;;13.63;9.07;;;;;;;;;;4970956;28;20175;-52
2022/11/21 11:14:32;;;;;;;13.43;10.87;;;;;;;;;;4988663;28;20178;-53
2022/11/21 11:16:58;;;;;;;11.30;9.20;;;;;;;;;;4988323;28;20270;-53
2022/11/21 11:19:26;;;;;;;13.00;9.93;;;;;;;;;;4988757;28;20289;-53
2022/11/21 11:21:53;;;;;;;11.43;9.07;;;;;;;;;;4987762;28;20171;-53
2022/11/21 11:24:20;;;;;;;10.13;8.50;;;;;;;;;;4989052;28;20163;-52
2022/11/21 11:26:46;;;;;;;12.10;8.30;;;;;;;;;;4988213;28;20808;-53
2022/11/21 11:29:14;;;;;;;9.23;8.20;;;;;;;;;;4988662;28;20199;-53
2022/11/21 11:32:03;;;;;;;10.67;8.23;;;;;;;;;;4988300;28;20247;-53
2022/11/21 11:34:38;;;;;;;12.60;7.87;;;;;;;;;;4980028;28;20230;-53
2022/11/21 11:37:20;;;;;;;12.17;8.23;;;;;;;;;;4987267;28;20544;-53
2022/11/21 11:39:55;;;;;;;13.93;7.60;;;;;;;;;;4988425;28;20283;-53
2022/11/21 11:48:23;;;;;;;8.03;6.70;;;;;;;;;;4988792;28;20221;-53
2022/11/21 11:50:51;;;;;;;8.90;7.73;;;;;;;;;;4987033;28;20567;-53
2022/11/21 11:53:19;;;;;;;8.40;6.47;;;;;;;;;;4988419;28;20838;-53
2022/11/21 11:56:03;;;;;;;7.93;6.17;;;;;;;;;;4987987;28;20728;-53
2022/11/21 11:58:38;;;;;;;8.13;6.60;;;;;;;;;;4988074;28;20253;-53
2022/11/21 12:01:12;;;;;;;8.93;6.40;;;;;;;;;;4987999;28;20286;-53
2022/11/21 12:03:41;;;;;;;8.10;6.20;;;;;;;;;;4987165;28;20181;-53
2022/11/21 12:06:28;;;;;;;6.60;5.90;;;;;;;;;;4992979;28;20178;-53
2022/11/21 12:08:54;;;;;;;7.40;5.63;;;;;;;;;;5007640;28;20186;-53
2022/11/21 12:17:34;;;;;;;8.20;5.33;;;;;;;;;;4952886;28;20278;-53
2022/11/21 12:20:03;;;;;;;6.00;4.93;;;;;;;;;;5007388;28;20162;-53
2022/11/21 12:22:29;;;;;;;8.07;5.50;;;;;;;;;;5005929;28;20163;-54
2022/11/21 12:24:55;;;;;;;6.73;5.13;;;;;;;;;;5007174;28;20166;-54
2022/11/21 12:27:27;;;;;;;7.80;6.30;;;;;;;;;;5006881;28;20167;-54
2022/11/21 12:29:59;;;;;;;9.17;5.93;;;;;;;;;;5007402;28;20273;-53
2022/11/21 12:32:44;;;;;;;5.27;4.40;;;;;;;;;;5007132;28;20151;-54
2022/11/21 12:35:34;;;;;;;11.67;5.27;;;;;;;;;;5006781;28;20163;-54
2022/11/21 12:38:19;;;;;;;6.20;4.93;;;;;;;;;;4988915;28;20215;-54
2022/11/21 12:40:50;;;;;;;6.40;5.03;;;;;;;;;;5006745;28;20680;-54
2022/11/21 12:43:27;;;;;;;7.37;5.33;;;;;;;;;;5006910;28;20718;-54
2022/11/21 12:46:12;;;;;;;8.80;5.37;;;;;;;;;;5006363;28;20232;-54
2022/11/21 12:54:41;;;;;;;5.50;4.20;;;;;;;;;;5006682;28;20199;-53
2022/11/21 12:57:11;;;;;;;5.80;4.20;;;;;;;;;;5006480;28;20185;-53
2022/11/21 12:59:50;;;;;;;6.60;5.40;;;;;;;;;;5006771;28;20617;-53
2022/11/21 13:02:26;;;;;;;7.43;4.53;;;;;;;;;;5006158;28;20559;-54
2022/11/21 13:04:53;;;;;;;7.17;3.90;;;;;;;;;;5006385;28;20545;-53
2022/11/21 13:07:20;;;;;;;5.73;4.20;;;;;;;;;;5005273;28;20179;-53
2022/11/21 13:09:48;;;;;;;6.10;3.87;;;;;;;;;;5006137;28;20266;-53
2022/11/21 13:12:23;;;;;;;7.70;4.60;;;;;;;;;;5005919;28;20171;-54
2022/11/21 13:14:55;;;;;;;9.93;4.47;;;;;;;;;;5006146;28;20178;-53
2022/11/21 13:17:21;;;;;;;8.50;4.67;;;;;;;;;;5005290;28;20175;-53
2022/11/21 13:20:06;;;;;;;5.33;4.30;;;;;;;;;;5005647;28;20159;-53
2022/11/21 13:22:35;;;;;;;5.53;4.40;;;;;;;;;;5004746;28;20656;-53
2022/11/21 13:25:12;;;;;;;5.93;4.33;;;;;;;;;;5006447;28;20271;-53
2022/11/21 13:27:39;;;;;;;4.57;4.07;;;;;;;;;;5005604;28;20198;-53
2022/11/21 13:30:11;;;;;;;6.03;4.23;;;;;;;;;;5005882;28;20865;-53
2022/11/21 13:32:53;;;;;;;6.30;4.67;;;;;;;;;;5007766;28;20228;-53
2022/11/21 13:35:26;;;;;;;6.37;4.23;;;;;;;;;;4985738;28;20183;-53
2022/11/21 13:37:53;;;;;;;7.40;4.27;;;;;;;;;;4985572;28;20167;-53
2022/11/21 13:40:31;;;;;;;6.13;4.33;;;;;;;;;;4986267;28;20148;-53
2022/11/21 13:43:10;;;;;;;5.60;4.47;;;;;;;;;;4986349;28;20245;-53
2022/11/21 13:45:42;;;;;;;5.20;4.70;;;;;;;;;;4967764;28;20217;-54
2022/11/21 13:48:26;;;;;;;6.23;4.23;;;;;;;;;;4985756;28;20603;-53
2022/11/21 13:51:19;;;;;;;9.67;4.67;;;;;;;;;;4983731;28;20594;-53
2022/11/21 13:53:45;;;;;;;8.30;4.67;;;;;;;;;;4964695;28;20179;-53
2022/11/21 13:56:29;;;;;;;5.87;4.37;;;;;;;;;;4985155;28;20163;-53
2022/11/21 13:58:58;;;;;;;4.80;4.27;;;;;;;;;;4985903;28;20167;-53
2022/11/21 14:01:33;;;;;;;8.80;4.90;;;;;;;;;;4985360;28;20581;-53
2022/11/21 14:04:08;;;;;;;6.73;4.17;;;;;;;;;;4985122;28;20189;-53
2022/11/21 14:06:35;;;;;;;6.57;4.70;;;;;;;;;;4977262;28;20250;-53
2022/11/21 14:09:16;;;;;;;6.73;4.30;;;;;;;;;;4966416;28;20194;-53
2022/11/21 14:11:48;;;;;;;6.23;4.93;;;;;;;;;;4980711;28;20230;-53
2022/11/21 14:14:33;;;;;;;7.40;4.50;;;;;;;;;;4985539;28;20226;-53
2022/11/21 14:17:13;;;;;;;6.57;4.20;;;;;;;;;;4984147;28;20179;-53
2022/11/21 14:19:40;;;;;;;7.43;4.50;;;;;;;;;;4984909;28;20168;-53
2022/11/21 14:22:14;;;;;;;6.03;3.53;;;;;;;;;;4984187;28;20688;-53
2022/11/21 14:24:41;;;;;;;7.80;4.37;;;;;;;;;;4985217;28;20166;-53
2022/11/21 14:27:15;;;;;;;5.20;4.70;;;;;;;;;;4984455;28;20206;-53
2022/11/21 14:29:41;;;;;;;4.33;3.83;;;;;;;;;;4985199;28;20186;-53
2022/11/21 14:32:14;;;;;;;6.47;4.27;;;;;;;;;;4984819;28;20529;-53
2022/11/21 14:34:40;;;;;;;5.77;3.77;;;;;;;;;;5003284;28;20222;-53
2022/11/21 14:37:06;;;;;;;6.33;3.90;;;;;;;;;;5003178;28;20559;-53
2022/11/21 14:39:34;;;;;;;4.70;4.23;;;;;;;;;;5003783;28;20225;-53
2022/11/21 14:42:04;;;;;;;5.30;4.03;;;;;;;;;;5002817;28;20623;-53
2022/11/21 14:44:30;;;;;;;4.13;3.60;;;;;;;;;;5003094;28;20194;-53
2022/11/21 14:47:08;;;;;;;6.13;3.60;;;;;;;;;;5002864;28;20194;-53
2022/11/21 14:49:34;;;;;;;7.03;4.30;;;;;;;;;;4985193;28;20205;-53
2022/11/21 14:52:12;;;;;;;10.87;4.33;;;;;;;;;;5002216;28;20158;-53
2022/11/21 14:54:49;;;;;;;4.50;3.47;;;;;;;;;;5003451;28;20197;-53
2022/11/21 14:57:19;;;;;;;6.57;4.00;;;;;;;;;;4984576;28;20170;-53
2022/11/21 14:59:45;;;;;;;4.70;4.30;;;;;;;;;;4984973;28;20224;-53
2022/11/21 15:02:28;;;;;;;4.87;4.23;;;;;;;;;;4984591;28;20686;-53
2022/11/21 15:04:59;;;;;;;5.27;2.87;;;;;;;;;;4985328;28;20163;-53